createdAt,value
2018-06-15T00:00:16.045Z,17.37
2018-06-15T00:02:49.180Z,18.13
2018-06-15T00:05:18.056Z,18.40
2018-06-15T00:07:46.952Z,17.10
2018-06-15T00:10:15.834Z,16.43
2018-06-15T00:12:44.697Z,17.97
2018-06-15T00:15:13.584Z,17.60
2018-06-15T00:17:42.527Z,16.80
2018-06-15T00:20:11.441Z,16.70
2018-06-15T00:22:40.360Z,16.90
2018-06-15T00:25:09.292Z,18.53
2018-06-15T00:27:38.269Z,18.07
2018-06-15T00:30:07.427Z,16.47
2018-06-15T00:32:36.424Z,15.63
2018-06-15T00:35:05.467Z,17.63
2018-06-15T00:37:35.330Z,15.93
2018-06-15T00:40:04.578Z,16.40
2018-06-15T00:42:33.669Z,18.70
2018-06-15T00:45:02.874Z,13.87
2018-06-15T00:47:31.893Z,13.90
2018-06-15T00:50:00.805Z,14.90
2018-06-15T00:52:29.657Z,5.17
2018-06-15T00:54:58.504Z,14.50
2018-06-15T00:57:39.321Z,13.43
2018-06-15T01:00:08.288Z,15.27
2018-06-15T01:02:37.234Z,16.40
2018-06-15T01:05:06.369Z,6.73
2018-06-15T01:07:35.288Z,17.23
2018-06-15T01:10:04.366Z,15.47
2018-06-15T01:12:33.388Z,18.63
2018-06-15T01:15:02.383Z,20.93
2018-06-15T01:17:31.716Z,19.17
2018-06-15T01:20:01.138Z,21.83
2018-06-15T01:22:30.061Z,20.60
2018-06-15T01:24:58.957Z,19.17
2018-06-15T01:27:27.805Z,23.07
2018-06-15T01:29:56.681Z,21.60
2018-06-15T01:32:25.553Z,20.03
2018-06-15T01:34:54.444Z,17.57
2018-06-15T01:37:23.328Z,17.83
2018-06-15T01:39:52.168Z,12.00
2018-06-15T01:42:21.132Z,18.70
2018-06-15T01:44:50.032Z,19.93
2018-06-15T01:47:18.922Z,15.20
2018-06-15T01:49:47.764Z,19.03
2018-06-15T01:52:16.623Z,18.67
2018-06-15T01:54:45.482Z,19.57
2018-06-15T01:57:14.373Z,19.23
2018-06-15T01:59:43.296Z,15.73
2018-06-15T02:02:12.161Z,15.63
2018-06-15T02:04:41.048Z,20.27
2018-06-15T02:07:09.964Z,20.60
2018-06-15T02:09:38.954Z,20.50
2018-06-15T02:12:07.901Z,20.40
2018-06-15T02:14:36.644Z,18.43
2018-06-15T02:17:05.544Z,18.40
2018-06-15T02:19:34.469Z,22.23
2018-06-15T02:22:03.468Z,24.77
2018-06-15T02:24:32.468Z,20.97
2018-06-15T02:27:01.461Z,21.17
2018-06-15T02:29:30.396Z,22.40
2018-06-15T02:31:59.365Z,19.53
2018-06-15T02:34:28.264Z,17.70
2018-06-15T02:36:57.144Z,21.00
2018-06-15T02:39:26.035Z,17.63
2018-06-15T02:41:54.925Z,18.80
2018-06-15T02:44:23.826Z,20.47
2018-06-15T02:46:52.713Z,16.97
2018-06-15T02:49:21.605Z,21.23
2018-06-15T02:51:50.549Z,22.40
2018-06-15T02:54:19.452Z,21.20
2018-06-15T02:56:48.330Z,20.60
2018-06-15T02:59:17.216Z,21.53
2018-06-15T03:01:46.071Z,17.73
2018-06-15T03:04:14.947Z,19.43
2018-06-15T03:06:43.837Z,22.03
2018-06-15T03:09:12.715Z,22.87
2018-06-15T03:11:41.631Z,20.80
2018-06-15T03:14:10.600Z,25.37
2018-06-15T03:16:39.565Z,21.80
2018-06-15T03:19:08.556Z,26.90
2018-06-15T03:21:37.498Z,22.60
2018-06-15T03:24:06.451Z,21.70
2018-06-15T03:26:35.431Z,26.50
2018-06-15T03:29:04.547Z,23.27
2018-06-15T03:31:33.666Z,22.70
2018-06-15T03:34:02.633Z,24.00
2018-06-15T03:36:31.614Z,23.37
2018-06-15T03:39:00.529Z,23.70
2018-06-15T03:41:29.505Z,23.80
2018-06-15T03:43:58.370Z,23.17
2018-06-15T03:46:27.338Z,23.70
2018-06-15T03:48:56.216Z,25.13
2018-06-15T03:51:25.143Z,23.53
2018-06-15T03:53:54.065Z,20.50
2018-06-15T03:56:22.973Z,26.37
2018-06-15T03:58:51.969Z,30.03
2018-06-15T04:01:20.869Z,22.77
2018-06-15T04:03:49.816Z,25.77
2018-06-15T04:06:18.708Z,27.50
2018-06-15T04:08:47.575Z,20.93
2018-06-15T04:11:16.470Z,23.87
2018-06-15T04:13:45.413Z,25.83
2018-06-15T04:16:14.137Z,25.40
2018-06-15T04:18:43.032Z,23.43
2018-06-15T04:21:11.903Z,21.47
2018-06-15T04:23:40.871Z,21.53
2018-06-15T04:26:09.937Z,25.63
2018-06-15T04:28:38.953Z,30.70
2018-06-15T04:31:07.922Z,22.80
2018-06-15T04:33:37.063Z,21.93
2018-06-15T04:36:06.113Z,20.57
2018-06-15T04:38:35.973Z,27.00
2018-06-15T04:41:04.920Z,29.67
2018-06-15T04:43:34.659Z,21.73
2018-06-15T04:46:03.393Z,23.53
2018-06-15T04:48:32.612Z,30.77
2018-06-15T04:51:02.213Z,33.50
2018-06-15T04:53:31.248Z,30.63
2018-06-15T04:55:59.928Z,33.70
2018-06-15T04:58:28.504Z,26.47
2018-06-15T05:00:57.261Z,28.13
2018-06-15T05:03:26.273Z,24.33
2018-06-15T05:05:55.185Z,26.40
2018-06-15T05:08:24.053Z,24.40
2018-06-15T05:10:52.916Z,25.87
2018-06-15T05:13:21.830Z,30.90
2018-06-15T05:15:50.733Z,29.27
2018-06-15T05:18:19.701Z,25.50
2018-06-15T05:20:48.589Z,25.23
2018-06-15T05:23:17.469Z,22.70
2018-06-15T05:25:46.396Z,28.03
2018-06-15T05:28:15.210Z,27.07
2018-06-15T05:30:44.330Z,23.30
2018-06-15T05:33:13.160Z,28.20
2018-06-15T05:35:42.193Z,25.87
2018-06-15T05:38:11.059Z,27.77
2018-06-15T05:40:39.945Z,21.50
2018-06-15T05:43:08.924Z,27.73
2018-06-15T05:45:37.859Z,28.27
2018-06-15T05:48:06.957Z,27.87
2018-06-15T05:50:35.912Z,25.30
2018-06-15T05:53:05.082Z,22.07
2018-06-15T05:55:34.190Z,24.60
2018-06-15T05:58:03.161Z,20.13
2018-06-15T06:00:31.909Z,19.80
2018-06-15T06:03:00.803Z,20.67
2018-06-15T06:05:29.670Z,17.93
2018-06-15T06:07:58.553Z,17.03
2018-06-15T06:10:27.436Z,20.77
2018-06-15T06:12:56.304Z,19.00
2018-06-15T06:15:25.214Z,24.57
2018-06-15T06:17:54.125Z,21.50
2018-06-15T06:20:22.972Z,17.87
2018-06-15T06:22:51.985Z,18.40
2018-06-15T06:25:20.837Z,16.87
2018-06-15T06:27:50.808Z,21.33
2018-06-15T06:30:19.697Z,21.57
2018-06-15T06:32:48.661Z,13.50
2018-06-15T06:35:18.921Z,17.20
2018-06-15T06:37:47.819Z,15.13
2018-06-15T06:40:20.040Z,17.40
2018-06-15T06:42:53.103Z,15.63
2018-06-15T06:45:21.978Z,14.43
2018-06-15T06:47:50.888Z,14.73
2018-06-15T06:50:19.742Z,16.13
2018-06-15T06:52:48.677Z,12.23
2018-06-15T06:55:17.541Z,15.90
2018-06-15T06:57:46.481Z,10.90
2018-06-15T07:00:15.372Z,12.70
2018-06-15T07:02:45.011Z,14.67
2018-06-15T07:05:14.431Z,14.90
2018-06-15T07:07:43.593Z,12.30
2018-06-15T07:10:12.492Z,6.90
2018-06-15T07:12:41.469Z,14.97
2018-06-15T07:15:10.457Z,17.70
2018-06-15T07:17:40.158Z,8.07
2018-06-15T07:20:09.209Z,15.43
2018-06-15T07:22:38.651Z,11.17
2018-06-15T07:25:07.684Z,3.63
2018-06-15T07:27:36.650Z,10.93
2018-06-15T07:30:05.757Z,11.27
2018-06-15T07:32:34.924Z,17.73
2018-06-15T07:35:04.003Z,13.10
2018-06-15T07:37:33.109Z,6.73
2018-06-15T07:40:02.108Z,17.63
2018-06-15T07:42:31.061Z,13.17
2018-06-15T07:44:59.995Z,11.47
2018-06-15T07:47:28.845Z,11.90
2018-06-15T07:49:58.337Z,5.57
2018-06-15T07:52:27.257Z,10.70
2018-06-15T07:54:56.072Z,10.83
2018-06-15T07:57:24.930Z,11.87
2018-06-15T07:59:53.857Z,10.03
2018-06-15T08:02:22.722Z,9.30
2018-06-15T08:04:51.605Z,5.80
2018-06-15T08:07:20.464Z,7.43
2018-06-15T08:09:49.316Z,18.20
2018-06-15T08:12:18.189Z,13.00
2018-06-15T08:14:47.081Z,18.63
2018-06-15T08:17:16.060Z,6.20
2018-06-15T08:19:44.904Z,14.43
2018-06-15T08:22:13.760Z,11.80
2018-06-15T08:24:42.630Z,10.67
2018-06-15T08:27:11.586Z,12.23
2018-06-15T08:29:40.441Z,8.87
2018-06-15T08:32:09.442Z,11.53
2018-06-15T08:34:38.464Z,11.33
2018-06-15T08:37:07.996Z,9.03
2018-06-15T08:39:36.979Z,11.57
2018-06-15T08:42:06.016Z,8.43
2018-06-15T08:44:34.943Z,18.30
2018-06-15T08:47:03.989Z,12.03
2018-06-15T08:49:33.005Z,11.03
2018-06-15T08:52:02.107Z,10.00
2018-06-15T08:54:31.097Z,10.10
2018-06-15T08:56:59.990Z,8.93
2018-06-15T08:59:28.973Z,12.07
2018-06-15T09:01:57.897Z,16.03
2018-06-15T09:04:27.866Z,9.13
2018-06-15T09:06:56.724Z,10.53
2018-06-15T09:09:25.650Z,14.60
2018-06-15T09:11:54.576Z,12.30
2018-06-15T09:14:23.459Z,11.87
2018-06-15T09:16:52.349Z,10.93
2018-06-15T09:19:21.284Z,14.17
2018-06-15T09:21:50.239Z,9.43
2018-06-15T09:24:19.104Z,9.30
2018-06-15T09:26:48.069Z,7.67
2018-06-15T09:29:16.940Z,10.77
2018-06-15T09:31:45.830Z,9.63
2018-06-15T09:34:14.714Z,11.07
2018-06-15T09:36:43.642Z,10.20
2018-06-15T09:39:12.503Z,10.03
2018-06-15T09:41:41.737Z,19.37
2018-06-15T09:44:10.644Z,5.63
2018-06-15T09:46:40.564Z,10.33
2018-06-15T09:49:09.698Z,10.93
2018-06-15T09:51:38.706Z,10.37
2018-06-15T09:54:07.693Z,9.27
2018-06-15T09:56:36.692Z,10.67
2018-06-15T09:59:05.801Z,13.57
2018-06-15T10:01:34.878Z,9.10
2018-06-15T10:04:03.971Z,11.57
2018-06-15T10:06:32.910Z,4.17
2018-06-15T10:09:01.952Z,6.53
2018-06-15T10:11:30.923Z,7.17
2018-06-15T10:13:59.781Z,9.27
2018-06-15T10:16:28.613Z,7.60
2018-06-15T10:18:57.456Z,11.30
2018-06-15T10:21:26.355Z,11.23
2018-06-15T10:23:55.193Z,9.03
2018-06-15T10:26:24.312Z,10.83
2018-06-15T10:28:53.193Z,16.23
2018-06-15T10:31:22.289Z,12.80
2018-06-15T10:33:51.193Z,8.60
2018-06-15T10:36:20.176Z,8.50
2018-06-15T10:38:49.041Z,12.87
2018-06-15T10:41:17.896Z,14.03
2018-06-15T10:43:46.754Z,10.97
2018-06-15T10:46:15.733Z,8.23
2018-06-15T10:48:44.718Z,9.73
2018-06-15T10:51:13.607Z,6.40
2018-06-15T10:53:42.493Z,9.33
2018-06-15T10:56:11.401Z,12.97
2018-06-15T10:58:40.196Z,9.33
2018-06-15T11:01:08.997Z,10.00
2018-06-15T11:03:37.909Z,8.80
2018-06-15T11:06:06.809Z,13.27
2018-06-15T11:08:35.718Z,7.03
2018-06-15T11:11:04.858Z,12.63
2018-06-15T11:13:33.811Z,8.00
2018-06-15T11:16:02.902Z,12.50
2018-06-15T11:18:31.863Z,12.77
2018-06-15T11:21:00.773Z,11.00
2018-06-15T11:23:29.624Z,8.13
2018-06-15T11:25:58.517Z,10.37
2018-06-15T11:28:27.368Z,13.67
2018-06-15T11:30:56.224Z,8.17
2018-06-15T11:33:25.113Z,12.87
2018-06-15T11:35:54.366Z,12.57
2018-06-15T11:38:24.292Z,9.73
2018-06-15T11:40:53.132Z,13.67
2018-06-15T11:43:22.012Z,10.10
2018-06-15T11:45:50.866Z,12.60
2018-06-15T11:48:19.721Z,13.63
2018-06-15T11:50:48.613Z,13.10
2018-06-15T11:53:17.453Z,11.57
2018-06-15T11:55:46.312Z,10.93
2018-06-15T11:58:15.232Z,15.07
2018-06-15T12:00:44.114Z,4.73
2018-06-15T12:03:12.973Z,5.37
2018-06-15T12:05:41.941Z,11.40
2018-06-15T12:08:10.902Z,3.60
2018-06-15T12:10:39.801Z,4.63
2018-06-15T12:13:08.665Z,4.20
2018-06-15T12:15:37.604Z,5.50
2018-06-15T12:18:07.609Z,8.13
2018-06-15T12:20:36.340Z,7.10
2018-06-15T12:23:05.285Z,12.50
2018-06-15T12:25:34.545Z,7.73
2018-06-15T12:28:03.946Z,7.97
2018-06-15T12:30:33.057Z,9.37
2018-06-15T12:33:02.126Z,6.83
2018-06-15T12:35:31.314Z,6.80
2018-06-15T12:38:00.370Z,7.30
2018-06-15T12:40:30.008Z,11.10
2018-06-15T12:42:58.969Z,4.20
2018-06-15T12:45:28.149Z,7.60
2018-06-15T12:47:57.295Z,7.40
2018-06-15T12:50:27.255Z,4.87
2018-06-15T12:52:56.559Z,11.23
2018-06-15T12:55:26.017Z,13.17
2018-06-15T12:57:55.786Z,10.50
2018-06-15T13:00:24.763Z,10.03
2018-06-15T13:02:53.645Z,7.83
2018-06-15T13:05:22.970Z,6.30
2018-06-15T13:07:51.836Z,10.57
2018-06-15T13:10:20.749Z,8.87
2018-06-15T13:12:50.534Z,7.80
2018-06-15T13:15:19.717Z,6.40
2018-06-15T13:17:48.609Z,9.80
2018-06-15T13:20:17.644Z,9.47
2018-06-15T13:22:46.515Z,10.13
2018-06-15T13:25:15.361Z,6.97
2018-06-15T13:27:44.213Z,11.87
2018-06-15T13:30:13.044Z,9.37
2018-06-15T13:32:41.884Z,12.47
2018-06-15T13:35:10.759Z,9.67
2018-06-15T13:37:39.379Z,11.27
2018-06-15T13:40:08.148Z,6.03
2018-06-15T13:42:37.027Z,8.83
2018-06-15T13:45:05.919Z,9.20
2018-06-15T13:47:34.932Z,8.80
2018-06-15T13:50:04.346Z,6.77
2018-06-15T13:52:33.361Z,10.20
2018-06-15T13:55:02.341Z,8.23
2018-06-15T13:57:31.412Z,10.17
2018-06-15T14:00:00.636Z,7.17
2018-06-15T14:02:29.605Z,8.20
2018-06-15T14:04:58.754Z,10.03
2018-06-15T14:07:27.707Z,6.33
2018-06-15T14:09:57.990Z,7.30
2018-06-15T14:12:27.157Z,11.30
2018-06-15T14:14:56.177Z,8.30
2018-06-15T14:17:25.168Z,7.77
2018-06-15T14:19:54.021Z,8.60
2018-06-15T14:22:22.883Z,10.77
2018-06-15T14:24:51.764Z,7.47
2018-06-15T14:27:20.600Z,10.33
2018-06-15T14:29:49.272Z,8.67
2018-06-15T14:32:17.981Z,11.60
2018-06-15T14:34:46.822Z,7.27
2018-06-15T14:37:15.657Z,6.53
2018-06-15T14:39:44.584Z,6.13
2018-06-15T14:42:13.576Z,10.50
2018-06-15T14:44:42.401Z,9.33
2018-06-15T14:47:11.272Z,5.80
2018-06-15T14:49:40.137Z,6.63
2018-06-15T14:52:08.981Z,8.10
2018-06-15T14:54:37.849Z,9.33
2018-06-15T14:57:06.707Z,6.80
2018-06-15T14:59:36.006Z,7.33
2018-06-15T15:02:04.860Z,8.13
2018-06-15T15:04:33.778Z,7.00
2018-06-15T15:07:02.837Z,9.17
2018-06-15T15:09:31.750Z,12.80
2018-06-15T15:12:00.732Z,6.53
2018-06-15T15:14:29.734Z,9.60
2018-06-15T15:16:58.663Z,9.80
2018-06-15T15:19:27.655Z,7.40
2018-06-15T15:21:56.653Z,10.10
2018-06-15T15:24:25.621Z,7.27
2018-06-15T15:26:54.599Z,5.40
2018-06-15T15:29:23.461Z,8.43
2018-06-15T15:31:52.331Z,6.20
2018-06-15T15:34:21.300Z,4.93
2018-06-15T15:36:50.117Z,7.53
2018-06-15T15:39:19.005Z,5.30
2018-06-15T15:41:47.885Z,8.37
2018-06-15T15:44:16.746Z,5.90
2018-06-15T15:46:45.627Z,6.00
2018-06-15T15:49:14.498Z,5.07
2018-06-15T15:51:43.365Z,9.47
2018-06-15T15:54:12.220Z,5.30
2018-06-15T15:56:41.073Z,3.43
2018-06-15T15:59:10.029Z,6.03
2018-06-15T16:01:38.901Z,6.13
2018-06-15T16:04:07.847Z,12.27
2018-06-15T16:06:37.768Z,4.10
2018-06-15T16:09:07.409Z,5.47
2018-06-15T16:11:36.436Z,6.73
2018-06-15T16:14:05.713Z,5.23
2018-06-15T16:16:34.877Z,9.47
2018-06-15T16:19:04.200Z,7.03
2018-06-15T16:21:33.164Z,8.87
2018-06-15T16:24:02.054Z,5.20
2018-06-15T16:26:31.090Z,5.57
2018-06-15T16:29:00.090Z,6.90
2018-06-15T16:31:29.162Z,7.77
2018-06-15T16:33:58.090Z,4.13
2018-06-15T16:36:27.163Z,6.60
2018-06-15T16:38:56.208Z,6.57
2018-06-15T16:41:25.106Z,8.97
2018-06-15T16:43:54.048Z,4.03
2018-06-15T16:46:22.945Z,6.90
2018-06-15T16:48:51.813Z,5.87
2018-06-15T16:51:20.728Z,7.20
2018-06-15T16:53:49.584Z,8.57
2018-06-15T16:56:18.499Z,4.80
2018-06-15T16:58:47.364Z,7.30
2018-06-15T17:01:16.222Z,3.87
2018-06-15T17:03:45.094Z,10.70
2018-06-15T17:06:13.969Z,5.33
2018-06-15T17:08:42.852Z,6.97
2018-06-15T17:11:11.941Z,5.00
2018-06-15T17:13:40.777Z,6.27
2018-06-15T17:16:09.658Z,9.70
2018-06-15T17:18:38.494Z,7.40
2018-06-15T17:21:07.338Z,3.80
2018-06-15T17:23:36.210Z,4.27
2018-06-15T17:26:05.117Z,6.60
2018-06-15T17:28:34.152Z,6.93
2018-06-15T17:31:03.099Z,3.63
2018-06-15T17:33:32.300Z,6.10
2018-06-15T17:36:01.237Z,3.80
2018-06-15T17:38:30.181Z,5.43
2018-06-15T17:40:59.176Z,4.87
2018-06-15T17:43:28.126Z,6.50
2018-06-15T17:45:57.381Z,7.60
2018-06-15T17:48:26.368Z,9.10
2018-06-15T17:50:55.273Z,6.87
2018-06-15T17:53:23.895Z,5.77
2018-06-15T17:55:52.617Z,8.50
2018-06-15T17:58:21.469Z,5.63
2018-06-15T18:00:50.349Z,8.67
2018-06-15T18:03:19.224Z,5.83
2018-06-15T18:05:48.053Z,8.13
2018-06-15T18:08:16.903Z,7.77
2018-06-15T18:10:45.829Z,10.50
2018-06-15T18:13:14.848Z,6.77
2018-06-15T18:15:43.778Z,7.37
2018-06-15T18:18:12.620Z,6.90
2018-06-15T18:20:41.513Z,5.67
2018-06-15T18:23:10.379Z,8.43
2018-06-15T18:25:39.318Z,6.53
2018-06-15T18:28:08.169Z,4.70
2018-06-15T18:30:37.125Z,10.07
2018-06-15T18:33:06.055Z,10.13
2018-06-15T18:35:34.961Z,7.00
2018-06-15T18:38:03.881Z,6.63
2018-06-15T18:40:32.821Z,7.87
2018-06-15T18:43:01.763Z,3.23
2018-06-15T18:45:30.858Z,9.10
2018-06-15T18:47:59.901Z,7.93
2018-06-15T18:50:29.068Z,6.87
2018-06-15T18:52:57.984Z,4.90
2018-06-15T18:55:26.935Z,8.33
2018-06-15T18:57:55.825Z,9.90
2018-06-15T19:00:24.730Z,9.43
2018-06-15T19:02:53.576Z,11.30
2018-06-15T19:05:22.440Z,9.53
2018-06-15T19:07:51.296Z,8.17
2018-06-15T19:10:20.128Z,5.77
2018-06-15T19:12:49.034Z,8.90
2018-06-15T19:15:17.896Z,8.33
2018-06-15T19:17:46.969Z,11.73
2018-06-15T19:20:15.801Z,5.33
2018-06-15T19:22:44.664Z,6.97
2018-06-15T19:25:13.644Z,6.87
2018-06-15T19:27:42.556Z,12.70
2018-06-15T19:30:11.433Z,8.90
2018-06-15T19:32:40.325Z,7.47
2018-06-15T19:35:09.357Z,7.90
2018-06-15T19:37:38.236Z,9.03
2018-06-15T19:40:07.093Z,7.37
2018-06-15T19:42:36.000Z,9.70
2018-06-15T19:45:05.012Z,9.70
2018-06-15T19:47:34.005Z,6.87
2018-06-15T19:50:02.954Z,7.37
2018-06-15T19:52:31.814Z,8.23
2018-06-15T19:55:00.884Z,8.33
2018-06-15T19:57:29.814Z,6.87
2018-06-15T19:59:58.770Z,7.60
2018-06-15T20:02:27.617Z,7.70
2018-06-15T20:04:56.532Z,7.70
2018-06-15T20:07:25.444Z,9.27
2018-06-15T20:09:54.293Z,8.50
2018-06-15T20:12:23.169Z,7.80
2018-06-15T20:14:52.009Z,7.47
2018-06-15T20:17:20.877Z,6.87
2018-06-15T20:19:49.737Z,5.33
2018-06-15T20:22:18.401Z,6.40
2018-06-15T20:24:47.156Z,7.07
2018-06-15T20:27:16.050Z,6.20
2018-06-15T20:29:44.941Z,8.77
2018-06-15T20:32:13.809Z,6.03
2018-06-15T20:34:42.664Z,8.33
2018-06-15T20:37:11.535Z,5.77
2018-06-15T20:39:40.392Z,10.47
2018-06-15T20:42:09.268Z,14.00
2018-06-15T20:44:38.144Z,7.20
2018-06-15T20:47:07.014Z,7.60
2018-06-15T20:49:35.925Z,9.77
2018-06-15T20:52:04.776Z,8.60
2018-06-15T20:54:33.714Z,7.00
2018-06-15T20:57:02.654Z,7.30
2018-06-15T20:59:31.617Z,7.70
2018-06-15T21:02:00.598Z,6.87
2018-06-15T21:04:29.524Z,9.30
2018-06-15T21:06:58.509Z,6.23
2018-06-15T21:09:27.485Z,8.47
2018-06-15T21:11:56.484Z,7.50
2018-06-15T21:14:25.166Z,5.83
2018-06-15T21:16:53.887Z,5.50
2018-06-15T21:19:22.792Z,8.57
2018-06-15T21:21:51.633Z,5.07
2018-06-15T21:24:20.484Z,7.63
2018-06-15T21:26:49.333Z,8.27
2018-06-15T21:29:18.204Z,9.37
2018-06-15T21:31:47.048Z,9.73
2018-06-15T21:34:15.898Z,4.93
2018-06-15T21:36:44.752Z,6.93
2018-06-15T21:39:13.635Z,7.90
2018-06-15T21:41:42.494Z,4.77
2018-06-15T21:44:11.344Z,7.10
2018-06-15T21:46:40.224Z,7.50
2018-06-15T21:49:09.153Z,6.83
2018-06-15T21:51:38.040Z,7.70
2018-06-15T21:54:06.904Z,8.30
2018-06-15T21:56:35.775Z,6.90
2018-06-15T21:59:04.754Z,9.33
2018-06-15T22:01:33.399Z,8.40
2018-06-15T22:04:02.148Z,8.10
2018-06-15T22:06:31.063Z,7.03
2018-06-15T22:09:00.189Z,8.27
2018-06-15T22:11:29.142Z,6.37
2018-06-15T22:13:58.060Z,9.20
2018-06-15T22:16:30.106Z,8.53
2018-06-15T22:18:59.026Z,6.33
2018-06-15T22:21:27.966Z,11.90
2018-06-15T22:23:56.963Z,6.40
2018-06-15T22:26:25.889Z,7.77
2018-06-15T22:28:54.747Z,8.53
2018-06-15T22:31:23.617Z,8.37
2018-06-15T22:33:52.467Z,5.10
2018-06-15T22:36:21.297Z,8.37
2018-06-15T22:38:50.160Z,6.00
2018-06-15T22:41:19.009Z,7.17
2018-06-15T22:43:48.127Z,6.50
2018-06-15T22:46:17.011Z,7.40
2018-06-15T22:48:45.845Z,7.53
2018-06-15T22:51:14.700Z,5.77
2018-06-15T22:53:43.649Z,10.03
2018-06-15T22:56:12.554Z,10.47
2018-06-15T22:58:41.397Z,6.13
2018-06-15T23:01:10.296Z,7.60
2018-06-15T23:03:39.154Z,6.20
2018-06-15T23:06:08.012Z,6.33
2018-06-15T23:08:37.242Z,8.83
2018-06-15T23:11:06.501Z,6.83
2018-06-15T23:13:35.435Z,8.37
2018-06-15T23:16:04.295Z,6.30
2018-06-15T23:18:33.215Z,8.03
2018-06-15T23:21:02.106Z,8.53
2018-06-15T23:23:30.995Z,8.23
2018-06-15T23:25:59.937Z,6.03
2018-06-15T23:28:28.959Z,9.87
2018-06-15T23:30:57.874Z,6.77
2018-06-15T23:33:26.836Z,6.67
2018-06-15T23:35:55.693Z,7.40
2018-06-15T23:38:24.592Z,8.87
2018-06-15T23:40:53.749Z,9.27
2018-06-15T23:43:22.610Z,6.50
2018-06-15T23:45:51.457Z,5.63
2018-06-15T23:48:20.330Z,7.47
2018-06-15T23:50:49.197Z,7.63
2018-06-15T23:53:18.203Z,8.87
2018-06-15T23:55:47.541Z,5.43
2018-06-15T23:58:16.405Z,7.27
